createdAt,value
2018-04-22T01:43:50.600Z,13.40
2018-04-22T04:10:27.000Z,11.50
2018-04-22T04:12:54.456Z,11.50
2018-04-22T04:29:01.940Z,11.20
2018-04-22T04:31:29.419Z,11.20
2018-04-22T04:33:56.916Z,11.10
2018-04-22T04:36:24.387Z,11.10
2018-04-22T04:38:51.879Z,11.10
2018-04-22T04:41:19.372Z,11.00
2018-04-22T04:43:46.833Z,11.00
2018-04-22T04:46:14.340Z,10.90
2018-04-22T04:48:41.916Z,10.90
2018-04-22T04:51:09.389Z,10.90
2018-04-22T04:53:37.624Z,10.90
2018-04-22T04:56:05.102Z,10.90
2018-04-22T07:10:03.439Z,14.90
2018-04-22T07:12:30.946Z,14.90
2018-04-22T07:14:59.168Z,14.90
2018-04-22T07:17:27.501Z,14.90
2018-04-22T07:19:55.764Z,15.00
2018-04-22T07:22:24.023Z,15.10
2018-04-22T07:24:51.516Z,15.10
2018-04-22T07:42:13.988Z,15.90
2018-04-22T07:44:41.487Z,16.00
2018-04-22T07:47:08.960Z,16.00
2018-04-22T07:49:37.212Z,16.10
2018-04-22T07:52:04.683Z,16.10
2018-04-22T07:54:32.166Z,16.20
2018-04-22T07:56:59.628Z,16.30
2018-04-22T07:59:27.131Z,16.40
2018-04-22T08:01:54.604Z,16.50
2018-04-22T08:04:22.103Z,16.50
2018-04-22T08:06:49.661Z,16.70
2018-04-22T08:09:17.868Z,16.90
2018-04-22T08:11:45.349Z,16.90
2018-04-22T08:14:12.813Z,17.00
2018-04-22T08:16:40.289Z,17.00
2018-04-22T08:19:08.524Z,17.30
2018-04-22T08:21:36.008Z,17.20
2018-04-22T08:24:04.240Z,17.40
2018-04-22T08:26:31.773Z,17.40
2018-04-22T08:28:59.263Z,17.50
2018-04-22T08:43:52.130Z,18.20
2018-04-22T08:46:19.617Z,18.30
2018-04-22T08:48:47.867Z,18.50
2018-04-22T08:51:15.359Z,18.50
2018-04-22T08:53:43.607Z,18.80
2018-04-22T08:56:11.107Z,18.80
2018-04-22T08:58:38.617Z,19.00
2018-04-22T09:01:06.075Z,19.10
2018-04-22T09:08:32.244Z,19.60
2018-04-22T09:10:59.720Z,19.60
2018-04-22T09:55:39.230Z,21.60
2018-04-22T09:58:06.708Z,21.60
